createdAt,value
2017-09-02T00:00:27.567Z,1015.00
2017-09-02T00:01:28.010Z,1015.02
2017-09-02T00:02:28.442Z,1015.00
2017-09-02T00:03:28.871Z,1014.97
2017-09-02T00:04:29.305Z,1014.96
2017-09-02T00:05:29.744Z,1014.94
2017-09-02T00:06:30.172Z,1014.94
2017-09-02T00:07:30.623Z,1014.97
2017-09-02T00:08:31.041Z,1014.94
2017-09-02T00:09:31.478Z,1014.96
2017-09-02T00:10:31.908Z,1014.93
2017-09-02T00:11:32.351Z,1014.93
2017-09-02T00:12:32.776Z,1014.90
2017-09-02T00:13:33.203Z,1014.89
2017-09-02T00:14:33.645Z,1014.93
2017-09-02T00:15:34.078Z,1014.89
2017-09-02T00:16:34.511Z,1014.90
2017-09-02T00:17:34.952Z,1014.94
2017-09-02T00:18:35.373Z,1014.92
2017-09-02T00:19:35.814Z,1014.94
2017-09-02T00:20:36.243Z,1014.92
2017-09-02T00:21:36.675Z,1014.93
2017-09-02T00:22:37.113Z,1014.89
2017-09-02T00:23:37.549Z,1014.90
2017-09-02T00:24:37.975Z,1014.89
2017-09-02T00:25:38.407Z,1014.90
2017-09-02T00:26:38.845Z,1014.91
2017-09-02T00:27:39.274Z,1014.90
2017-09-02T00:28:39.712Z,1014.86
2017-09-02T00:29:40.162Z,1014.91
2017-09-02T00:30:40.575Z,1014.91
2017-09-02T00:31:41.005Z,1014.92
2017-09-02T00:32:41.440Z,1014.95
2017-09-02T00:33:41.886Z,1014.93
2017-09-02T00:34:42.309Z,1014.97
2017-09-02T00:35:42.755Z,1014.93
2017-09-02T00:36:43.177Z,1014.96
2017-09-02T00:37:43.606Z,1014.96
2017-09-02T00:38:44.061Z,1014.93
2017-09-02T00:39:44.477Z,1014.93
2017-09-02T00:40:44.908Z,1014.97
2017-09-02T00:41:45.340Z,1014.91
2017-09-02T00:42:45.773Z,1014.90
2017-09-02T00:43:46.209Z,1014.93
2017-09-02T00:44:46.647Z,1014.94
2017-09-02T00:45:47.081Z,1014.93
2017-09-02T00:46:47.511Z,1014.92
2017-09-02T00:47:47.939Z,1014.93
2017-09-02T00:48:48.378Z,1014.93
2017-09-02T00:49:48.805Z,1014.98
2017-09-02T00:50:49.271Z,1014.98
2017-09-02T00:51:49.675Z,1014.96
2017-09-02T00:52:50.109Z,1015.01
2017-09-02T00:53:50.544Z,1015.00
2017-09-02T00:54:50.987Z,1015.02
2017-09-02T00:55:51.412Z,1015.05
2017-09-02T00:56:51.835Z,1015.00
2017-09-02T00:57:52.277Z,1015.00
2017-09-02T00:58:52.707Z,1015.04
2017-09-02T00:59:53.133Z,1015.05
2017-09-02T01:00:53.579Z,1015.03
2017-09-02T01:01:54.009Z,1015.03
2017-09-02T01:02:54.442Z,1015.02
2017-09-02T01:03:54.877Z,1015.04
2017-09-02T01:04:55.312Z,1015.01
2017-09-02T01:05:55.734Z,1015.00
2017-09-02T01:06:56.166Z,1015.00
2017-09-02T01:07:56.601Z,1015.01
2017-09-02T01:08:57.034Z,1014.98
2017-09-02T01:09:57.469Z,1015.01
2017-09-02T01:10:57.903Z,1015.01
2017-09-02T01:11:58.336Z,1015.01
2017-09-02T01:12:58.764Z,1014.98
2017-09-02T01:13:59.206Z,1014.94
2017-09-02T01:14:59.631Z,1014.99
2017-09-02T01:16:00.066Z,1014.92
2017-09-02T01:17:00.496Z,1014.95
2017-09-02T01:18:00.928Z,1014.94
2017-09-02T01:19:01.363Z,1014.91
2017-09-02T01:20:01.830Z,1014.91
2017-09-02T01:21:02.227Z,1014.87
2017-09-02T01:22:02.659Z,1014.92
2017-09-02T01:23:03.113Z,1014.91
2017-09-02T01:24:03.534Z,1014.90
2017-09-02T01:25:03.959Z,1014.88
2017-09-02T01:26:04.391Z,1014.94
2017-09-02T01:27:04.828Z,1014.94
2017-09-02T01:28:05.261Z,1014.95
2017-09-02T01:29:05.692Z,1014.94
2017-09-02T01:30:06.120Z,1014.89
2017-09-02T01:31:06.558Z,1014.91
2017-09-02T01:32:06.984Z,1014.87
2017-09-02T01:33:07.421Z,1014.90
2017-09-02T01:34:07.854Z,1014.86
2017-09-02T01:35:08.291Z,1014.84
2017-09-02T01:36:08.729Z,1014.85
2017-09-02T01:37:09.151Z,1014.83
2017-09-02T01:38:09.579Z,1014.81
2017-09-02T01:39:10.011Z,1014.89
2017-09-02T01:40:10.446Z,1014.81
2017-09-02T01:41:10.881Z,1014.83
2017-09-02T01:42:11.315Z,1014.83
2017-09-02T01:43:11.753Z,1014.81
2017-09-02T01:44:12.178Z,1014.84
2017-09-02T01:45:12.662Z,1014.89
2017-09-02T01:46:13.047Z,1014.84
2017-09-02T01:47:13.478Z,1014.85
2017-09-02T01:48:13.904Z,1014.90
2017-09-02T01:49:14.340Z,1014.84
2017-09-02T01:50:14.778Z,1014.86
2017-09-02T01:51:15.202Z,1014.85
2017-09-02T01:52:15.638Z,1014.89
2017-09-02T01:53:16.080Z,1014.91
2017-09-02T01:54:16.510Z,1014.86
2017-09-02T01:55:16.937Z,1014.86
2017-09-02T01:56:17.368Z,1014.84
2017-09-02T01:57:17.800Z,1014.82
2017-09-02T01:58:18.243Z,1014.77
2017-09-02T01:59:18.674Z,1014.80
2017-09-02T02:00:19.098Z,1014.78
2017-09-02T02:01:19.530Z,1014.78
2017-09-02T02:02:19.961Z,1014.75
2017-09-02T02:03:20.394Z,1014.76
2017-09-02T02:04:20.824Z,1014.76
2017-09-02T02:05:21.259Z,1014.77
2017-09-02T02:06:21.687Z,1014.75
2017-09-02T02:07:22.124Z,1014.74
2017-09-02T02:08:22.552Z,1014.76
2017-09-02T02:09:22.990Z,1014.78
2017-09-02T02:10:23.420Z,1014.77
2017-09-02T02:11:23.850Z,1014.77
2017-09-02T02:12:24.312Z,1014.77
2017-09-02T02:13:24.723Z,1014.82
2017-09-02T02:14:25.141Z,1014.76
2017-09-02T02:15:25.585Z,1014.78
2017-09-02T02:16:26.013Z,1014.77
2017-09-02T02:17:26.438Z,1014.76
2017-09-02T02:18:26.883Z,1014.76
2017-09-02T02:21:37.173Z,1014.72
2017-09-02T02:22:00.872Z,1014.77
2017-09-02T02:23:55.418Z,1014.75
2017-09-02T02:24:55.850Z,1014.79
2017-09-02T02:25:56.279Z,1014.80
2017-09-02T02:26:56.711Z,1014.80
2017-09-02T02:27:57.158Z,1014.81
2017-09-02T02:28:57.573Z,1014.77
2017-09-02T02:29:58.021Z,1014.81
2017-09-02T02:30:58.438Z,1014.81
2017-09-02T02:31:58.867Z,1014.80
2017-09-02T02:32:59.300Z,1014.80
2017-09-02T02:33:59.730Z,1014.79
2017-09-02T02:35:00.175Z,1014.78
2017-09-02T02:36:00.595Z,1014.76
2017-09-02T02:37:01.043Z,1014.75
2017-09-02T02:38:01.458Z,1014.76
2017-09-02T02:39:01.894Z,1014.72
2017-09-02T02:40:02.327Z,1014.70
2017-09-02T02:41:02.768Z,1014.69
2017-09-02T02:42:03.216Z,1014.70
2017-09-02T02:43:03.619Z,1014.70
2017-09-02T02:44:04.049Z,1014.71
2017-09-02T02:45:04.492Z,1014.74
2017-09-02T02:46:04.928Z,1014.71
2017-09-02T02:47:05.352Z,1014.74
2017-09-02T02:48:05.772Z,1014.73
2017-09-02T02:49:06.209Z,1014.72
2017-09-02T02:50:06.646Z,1014.77
2017-09-02T02:51:07.073Z,1014.73
2017-09-02T02:52:07.508Z,1014.71
2017-09-02T02:53:07.940Z,1014.68
2017-09-02T02:54:08.369Z,1014.73
2017-09-02T02:55:08.799Z,1014.73
2017-09-02T02:56:09.227Z,1014.75
2017-09-02T02:57:09.672Z,1014.69
2017-09-02T02:58:10.095Z,1014.73
2017-09-02T02:59:10.531Z,1014.71
2017-09-02T03:00:10.955Z,1014.71
2017-09-02T03:01:11.399Z,1014.71
2017-09-02T03:02:11.823Z,1014.69
2017-09-02T03:03:12.267Z,1014.68
2017-09-02T03:04:12.685Z,1014.65
2017-09-02T03:05:13.115Z,1014.67
2017-09-02T03:06:13.551Z,1014.64
2017-09-02T03:07:13.982Z,1014.67
2017-09-02T03:08:14.413Z,1014.59
2017-09-02T03:09:14.841Z,1014.66
2017-09-02T03:10:15.286Z,1014.69
2017-09-02T03:11:15.705Z,1014.70
2017-09-02T03:12:16.140Z,1014.73
2017-09-02T03:13:16.573Z,1014.70
2017-09-02T03:14:17.001Z,1014.74
2017-09-02T03:15:17.440Z,1014.71
2017-09-02T03:16:17.859Z,1014.72
2017-09-02T03:17:18.301Z,1014.70
2017-09-02T03:18:18.732Z,1014.67
2017-09-02T03:19:19.158Z,1014.67
2017-09-02T03:20:19.594Z,1014.63
2017-09-02T03:21:20.019Z,1014.67
2017-09-02T03:22:20.452Z,1014.62
2017-09-02T03:23:20.885Z,1014.61
2017-09-02T03:24:21.322Z,1014.62
2017-09-02T03:25:21.749Z,1014.61
2017-09-02T03:26:22.178Z,1014.57
2017-09-02T03:27:22.615Z,1014.58
2017-09-02T03:28:23.043Z,1014.60
2017-09-02T03:29:23.466Z,1014.58
2017-09-02T03:30:23.904Z,1014.61
2017-09-02T03:31:24.339Z,1014.60
2017-09-02T03:32:24.770Z,1014.58
2017-09-02T03:33:25.199Z,1014.59
2017-09-02T03:34:25.629Z,1014.59
2017-09-02T03:35:26.062Z,1014.60
2017-09-02T03:36:26.490Z,1014.57
2017-09-02T03:37:26.922Z,1014.56
2017-09-02T03:38:27.350Z,1014.60
2017-09-02T03:39:27.804Z,1014.59
2017-09-02T03:40:28.218Z,1014.60
2017-09-02T03:41:28.646Z,1014.57
2017-09-02T03:42:29.106Z,1014.59
2017-09-02T03:43:29.516Z,1014.59
2017-09-02T03:44:29.939Z,1014.57
2017-09-02T03:45:30.369Z,1014.55
2017-09-02T03:46:30.814Z,1014.60
2017-09-02T03:47:31.239Z,1014.58
2017-09-02T03:48:31.665Z,1014.55
2017-09-02T03:49:32.104Z,1014.55
2017-09-02T03:50:32.531Z,1014.57
2017-09-02T03:51:32.960Z,1014.60
2017-09-02T03:52:33.391Z,1014.56
2017-09-02T03:53:33.835Z,1014.55
2017-09-02T03:54:34.274Z,1014.55
2017-09-02T03:55:34.687Z,1014.59
2017-09-02T03:56:35.112Z,1014.60
2017-09-02T03:57:35.548Z,1014.59
2017-09-02T03:58:35.977Z,1014.59
2017-09-02T03:59:36.412Z,1014.57
2017-09-02T04:00:36.839Z,1014.57
2017-09-02T04:01:37.274Z,1014.57
2017-09-02T04:02:37.707Z,1014.57
2017-09-02T04:03:38.132Z,1014.57
2017-09-02T04:04:38.561Z,1014.53
2017-09-02T04:05:38.994Z,1014.55
2017-09-02T04:06:39.423Z,1014.53
2017-09-02T04:07:39.874Z,1014.55
2017-09-02T04:08:40.286Z,1014.50
2017-09-02T04:09:40.715Z,1014.54
2017-09-02T04:10:41.155Z,1014.53
2017-09-02T04:11:41.576Z,1014.53
2017-09-02T04:12:42.009Z,1014.57
2017-09-02T04:13:42.443Z,1014.58
2017-09-02T04:14:42.874Z,1014.55
2017-09-02T04:15:43.299Z,1014.55
2017-09-02T04:16:43.730Z,1014.54
2017-09-02T04:17:44.160Z,1014.53
2017-09-02T04:18:44.595Z,1014.52
2017-09-02T04:19:45.030Z,1014.56
2017-09-02T04:20:45.457Z,1014.56
2017-09-02T04:21:45.893Z,1014.51
2017-09-02T04:22:46.315Z,1014.51
2017-09-02T04:23:46.746Z,1014.52
2017-09-02T04:24:47.178Z,1014.53
2017-09-02T04:25:47.610Z,1014.52
2017-09-02T04:26:48.042Z,1014.52
2017-09-02T04:27:48.466Z,1014.52
2017-09-02T04:28:48.900Z,1014.54
2017-09-02T04:29:49.335Z,1014.51
2017-09-02T04:30:49.785Z,1014.52
2017-09-02T04:31:50.197Z,1014.49
2017-09-02T04:32:50.626Z,1014.49
2017-09-02T04:33:51.054Z,1014.50
2017-09-02T04:34:51.484Z,1014.48
2017-09-02T04:35:51.915Z,1014.48
2017-09-02T04:36:52.348Z,1014.46
2017-09-02T04:37:52.777Z,1014.41
2017-09-02T04:38:53.208Z,1014.45
2017-09-02T04:39:53.641Z,1014.44
2017-09-02T04:40:54.123Z,1014.43
2017-09-02T04:41:54.499Z,1014.41
2017-09-02T04:42:54.932Z,1014.36
2017-09-02T04:43:55.358Z,1014.39
2017-09-02T04:44:55.786Z,1014.40
2017-09-02T04:45:56.218Z,1014.38
2017-09-02T04:46:56.655Z,1014.38
2017-09-02T04:47:57.079Z,1014.38
2017-09-02T04:48:57.512Z,1014.36
2017-09-02T04:49:57.947Z,1014.39
2017-09-02T04:50:58.373Z,1014.41
2017-09-02T04:51:58.801Z,1014.43
2017-09-02T04:52:59.237Z,1014.44
2017-09-02T04:53:59.667Z,1014.44
2017-09-02T04:55:00.104Z,1014.46
2017-09-02T04:56:00.520Z,1014.46
2017-09-02T04:57:00.954Z,1014.43
2017-09-02T04:58:01.384Z,1014.46
2017-09-02T04:59:01.865Z,1014.48
2017-09-02T05:00:02.253Z,1014.47
2017-09-02T05:01:02.680Z,1014.46
2017-09-02T05:02:03.115Z,1014.48
2017-09-02T05:03:03.544Z,1014.47
2017-09-02T05:04:03.978Z,1014.49
2017-09-02T05:05:04.404Z,1014.48
2017-09-02T05:06:04.840Z,1014.52
2017-09-02T05:07:05.278Z,1014.53
2017-09-02T05:08:05.699Z,1014.55
2017-09-02T05:09:06.130Z,1014.52
2017-09-02T05:10:06.560Z,1014.50
2017-09-02T05:11:07.001Z,1014.55
2017-09-02T05:12:07.423Z,1014.58
2017-09-02T05:13:07.859Z,1014.56
2017-09-02T05:14:08.289Z,1014.55
2017-09-02T05:15:08.726Z,1014.58
2017-09-02T05:16:09.150Z,1014.58
2017-09-02T05:17:09.577Z,1014.55
2017-09-02T05:18:10.012Z,1014.56
2017-09-02T05:19:10.442Z,1014.58
2017-09-02T05:20:10.876Z,1014.59
2017-09-02T05:21:11.305Z,1014.59
2017-09-02T05:22:11.735Z,1014.62
2017-09-02T05:23:12.169Z,1014.60
2017-09-02T05:24:12.598Z,1014.61
2017-09-02T05:25:13.030Z,1014.61
2017-09-02T05:26:13.461Z,1014.61
2017-09-02T05:27:13.923Z,1014.61
2017-09-02T05:28:14.324Z,1014.61
2017-09-02T05:29:14.752Z,1014.59
2017-09-02T05:30:15.193Z,1014.56
2017-09-02T05:31:15.624Z,1014.61
2017-09-02T05:32:16.056Z,1014.60
2017-09-02T05:33:16.484Z,1014.62
2017-09-02T05:34:16.946Z,1014.60
2017-09-02T05:35:17.345Z,1014.64
2017-09-02T05:36:17.775Z,1014.62
2017-09-02T05:37:18.205Z,1014.65
2017-09-02T05:38:18.658Z,1014.68
2017-09-02T05:39:19.072Z,1014.64
2017-09-02T05:40:19.504Z,1014.62
2017-09-02T05:41:19.937Z,1014.63
2017-09-02T05:42:20.370Z,1014.57
2017-09-02T05:43:20.803Z,1014.54
2017-09-02T05:44:21.232Z,1014.56
2017-09-02T05:45:21.659Z,1014.55
2017-09-02T05:46:22.090Z,1014.54
2017-09-02T05:47:22.523Z,1014.56
2017-09-02T05:48:22.961Z,1014.52
2017-09-02T05:49:23.390Z,1014.50
2017-09-02T05:50:23.820Z,1014.50
2017-09-02T05:51:24.248Z,1014.51
2017-09-02T05:52:24.685Z,1014.51
2017-09-02T05:53:25.113Z,1014.52
2017-09-02T05:54:25.551Z,1014.51
2017-09-02T05:55:25.978Z,1014.52
2017-09-02T05:56:26.410Z,1014.48
2017-09-02T05:57:26.840Z,1014.50
2017-09-02T05:58:27.279Z,1014.53
2017-09-02T05:59:27.712Z,1014.48
2017-09-02T06:00:28.135Z,1014.53
2017-09-02T06:01:28.588Z,1014.50
2017-09-02T06:02:29.001Z,1014.48
2017-09-02T06:03:29.435Z,1014.43
2017-09-02T06:04:29.871Z,1014.50
2017-09-02T06:05:30.296Z,1014.47
2017-09-02T06:06:30.736Z,1014.49
2017-09-02T06:07:31.158Z,1014.50
2017-09-02T06:08:31.597Z,1014.53
2017-09-02T06:09:32.025Z,1014.51
2017-09-02T06:10:32.461Z,1014.49
2017-09-02T06:11:32.892Z,1014.52
2017-09-02T06:12:33.325Z,1014.54
2017-09-02T06:13:33.772Z,1014.54
2017-09-02T06:14:34.187Z,1014.51
2017-09-02T06:15:34.630Z,1014.52
2017-09-02T06:16:35.061Z,1014.55
2017-09-02T06:17:35.489Z,1014.54
2017-09-02T06:18:35.919Z,1014.55
2017-09-02T06:19:36.354Z,1014.53
2017-09-02T06:20:36.786Z,1014.52
2017-09-02T06:21:37.301Z,1014.52
2017-09-02T06:22:37.652Z,1014.51
2017-09-02T06:23:38.081Z,1014.53
2017-09-02T06:24:38.520Z,1014.51
2017-09-02T06:25:38.961Z,1014.45
2017-09-02T06:26:39.382Z,1014.48
2017-09-02T06:27:39.816Z,1014.43
2017-09-02T06:28:40.249Z,1014.46
2017-09-02T06:29:40.680Z,1014.41
2017-09-02T06:30:41.115Z,1014.40
2017-09-02T06:31:41.545Z,1014.39
2017-09-02T06:32:42.009Z,1014.42
2017-09-02T06:33:42.413Z,1014.42
2017-09-02T06:34:42.857Z,1014.42
2017-09-02T06:35:43.284Z,1014.44
2017-09-02T06:36:43.714Z,1014.42
2017-09-02T06:37:44.152Z,1014.41
2017-09-02T06:38:44.612Z,1014.43
2017-09-02T06:39:45.017Z,1014.45
2017-09-02T06:40:45.456Z,1014.46
2017-09-02T06:41:45.886Z,1014.46
2017-09-02T06:42:46.318Z,1014.48
2017-09-02T06:43:46.755Z,1014.41
2017-09-02T06:44:47.186Z,1014.43
2017-09-02T06:45:47.621Z,1014.42
2017-09-02T06:46:48.050Z,1014.42
2017-09-02T06:47:48.485Z,1014.47
2017-09-02T06:48:48.917Z,1014.49
2017-09-02T06:49:49.353Z,1014.50
2017-09-02T06:50:49.786Z,1014.50
2017-09-02T06:51:50.224Z,1014.53
2017-09-02T06:52:50.653Z,1014.55
2017-09-02T06:53:51.093Z,1014.53
2017-09-02T06:54:51.523Z,1014.54
2017-09-02T06:55:51.959Z,1014.55
2017-09-02T06:56:52.395Z,1014.58
2017-09-02T06:57:52.826Z,1014.53
2017-09-02T06:58:53.266Z,1014.53
2017-09-02T06:59:53.703Z,1014.54
2017-09-02T07:00:54.135Z,1014.53
2017-09-02T07:01:54.571Z,1014.57
2017-09-02T07:02:54.997Z,1014.60
2017-09-02T07:03:55.440Z,1014.57
2017-09-02T07:04:55.870Z,1014.60
2017-09-02T07:05:56.304Z,1014.60
2017-09-02T07:06:56.737Z,1014.60
2017-09-02T07:07:57.174Z,1014.59
2017-09-02T07:08:57.610Z,1014.60
2017-09-02T07:09:58.040Z,1014.60
2017-09-02T07:10:58.477Z,1014.61
2017-09-02T07:11:58.918Z,1014.65
2017-09-02T07:12:59.349Z,1014.65
2017-09-02T07:13:59.866Z,1014.64
2017-09-02T07:15:00.217Z,1014.63
2017-09-02T07:16:00.656Z,1014.65
2017-09-02T07:17:01.089Z,1014.69
2017-09-02T07:18:01.523Z,1014.66
2017-09-02T07:19:01.969Z,1014.65
2017-09-02T07:20:02.394Z,1014.64
2017-09-02T07:21:02.837Z,1014.66
2017-09-02T07:22:03.262Z,1014.64
2017-09-02T07:23:03.715Z,1014.70
2017-09-02T07:24:04.141Z,1014.73
2017-09-02T07:25:04.571Z,1014.66
2017-09-02T07:26:05.007Z,1014.69
2017-09-02T07:27:05.446Z,1014.71
2017-09-02T07:28:05.877Z,1014.70
2017-09-02T07:29:06.312Z,1014.70
2017-09-02T07:30:06.747Z,1014.68
2017-09-02T07:31:07.188Z,1014.68
2017-09-02T07:32:07.625Z,1014.67
2017-09-02T07:33:08.104Z,1014.68
2017-09-02T07:34:08.484Z,1014.67
2017-09-02T07:35:08.931Z,1014.65
2017-09-02T07:36:09.375Z,1014.66
2017-09-02T07:37:09.835Z,1014.68
2017-09-02T07:38:10.245Z,1014.67
2017-09-02T07:39:10.681Z,1014.69
2017-09-02T07:40:11.117Z,1014.71
2017-09-02T07:41:11.562Z,1014.71
2017-09-02T07:42:12.000Z,1014.71
2017-09-02T07:43:12.478Z,1014.67
2017-09-02T07:44:12.891Z,1014.69
2017-09-02T07:45:13.309Z,1014.67
2017-09-02T07:46:13.746Z,1014.67
2017-09-02T07:47:14.180Z,1014.61
2017-09-02T07:48:14.630Z,1014.69
2017-09-02T07:49:15.071Z,1014.65
2017-09-02T07:50:15.585Z,1014.69
2017-09-02T07:51:15.965Z,1014.64
2017-09-02T07:52:16.403Z,1014.64
2017-09-02T07:53:16.873Z,1014.65
2017-09-02T07:54:17.287Z,1014.61
2017-09-02T07:55:17.733Z,1014.69
2017-09-02T07:56:18.184Z,1014.68
2017-09-02T07:57:18.632Z,1014.68
2017-09-02T07:58:19.078Z,1014.62
2017-09-02T07:59:19.538Z,1014.62
2017-09-02T08:00:19.978Z,1014.61
2017-09-02T08:01:20.439Z,1014.60
2017-09-02T08:02:20.885Z,1014.61
2017-09-02T08:03:21.341Z,1014.58
2017-09-02T08:04:21.787Z,1014.60
2017-09-02T08:05:22.239Z,1014.58
2017-09-02T08:06:22.697Z,1014.60
2017-09-02T08:07:23.147Z,1014.57
2017-09-02T08:08:23.601Z,1014.58
2017-09-02T08:09:24.061Z,1014.55
2017-09-02T08:10:24.528Z,1014.57
2017-09-02T08:11:24.967Z,1014.57
2017-09-02T08:12:25.421Z,1014.58
2017-09-02T08:13:25.875Z,1014.53
2017-09-02T08:14:26.334Z,1014.54
2017-09-02T08:15:26.790Z,1014.54
2017-09-02T08:16:27.248Z,1014.54
2017-09-02T08:17:27.711Z,1014.51
2017-09-02T08:18:28.171Z,1014.51
2017-09-02T08:19:28.621Z,1014.53
2017-09-02T08:20:29.073Z,1014.55
2017-09-02T08:21:29.541Z,1014.54
2017-09-02T08:22:29.995Z,1014.56
2017-09-02T08:23:30.450Z,1014.52
2017-09-02T08:24:30.910Z,1014.54
2017-09-02T08:25:31.377Z,1014.50
2017-09-02T08:26:31.837Z,1014.49
2017-09-02T08:27:32.324Z,1014.50
2017-09-02T08:28:32.749Z,1014.49
2017-09-02T08:29:33.218Z,1014.50
2017-09-02T08:30:33.747Z,1014.46
2017-09-02T08:31:34.128Z,1014.50
2017-09-02T08:32:34.612Z,1014.51
2017-09-02T08:33:35.057Z,1014.45
2017-09-02T08:34:35.515Z,1014.52
2017-09-02T08:35:35.977Z,1014.48
2017-09-02T08:36:36.443Z,1014.46
2017-09-02T08:37:36.902Z,1014.47
2017-09-02T08:38:37.380Z,1014.46
2017-09-02T08:39:37.830Z,1014.47
2017-09-02T08:40:38.289Z,1014.45
2017-09-02T08:41:38.761Z,1014.45
2017-09-02T08:42:39.220Z,1014.39
2017-09-02T08:43:39.680Z,1014.43
2017-09-02T08:44:40.152Z,1014.45
2017-09-02T08:45:40.608Z,1014.43
2017-09-02T08:46:41.069Z,1014.38
2017-09-02T08:47:41.537Z,1014.37
2017-09-02T08:48:42.000Z,1014.40
2017-09-02T08:51:19.826Z,1014.48
2017-09-02T08:52:20.311Z,1014.44
2017-09-02T08:53:20.771Z,1014.46
2017-09-02T08:54:21.236Z,1014.45
2017-09-02T08:55:21.696Z,1014.45
2017-09-02T08:56:22.156Z,1014.45
2017-09-02T08:57:22.624Z,1014.44
2017-09-02T08:58:23.080Z,1014.46
2017-09-02T08:59:23.541Z,1014.44
2017-09-02T09:00:24.005Z,1014.44
2017-09-02T09:01:24.465Z,1014.40
2017-09-02T09:02:24.925Z,1014.41
2017-09-02T09:03:25.393Z,1014.38
2017-09-02T09:04:25.847Z,1014.40
2017-09-02T09:05:26.307Z,1014.39
2017-09-02T09:06:26.780Z,1014.51
2017-09-02T09:07:27.229Z,1014.47
2017-09-02T09:08:27.694Z,1014.47
2017-09-02T09:09:28.159Z,1014.51
2017-09-02T09:10:28.617Z,1014.49
2017-09-02T09:11:29.080Z,1014.45
2017-09-02T09:12:29.555Z,1014.52
2017-09-02T09:13:30.011Z,1014.46
2017-09-02T09:14:30.486Z,1014.57
2017-09-02T09:15:30.935Z,1014.59
2017-09-02T09:16:31.398Z,1014.60
2017-09-02T09:17:31.857Z,1014.61
2017-09-02T09:18:32.322Z,1014.61
2017-09-02T09:19:32.785Z,1014.62
2017-09-02T09:20:33.250Z,1014.67
2017-09-02T09:21:33.749Z,1014.69
2017-09-02T09:22:34.174Z,1014.71
2017-09-02T09:23:34.643Z,1014.68
2017-09-02T09:24:35.100Z,1014.70
2017-09-02T09:25:35.555Z,1014.69
2017-09-02T09:26:36.015Z,1014.70
2017-09-02T09:27:36.472Z,1014.74
2017-09-02T09:28:36.930Z,1014.68
2017-09-02T09:29:37.386Z,1014.60
2017-09-02T09:30:37.842Z,1014.67
2017-09-02T09:31:38.297Z,1014.66
2017-09-02T09:32:38.765Z,1014.65
2017-09-02T09:33:39.219Z,1014.64
2017-09-02T09:34:39.676Z,1014.57
2017-09-02T09:35:40.155Z,1014.55
2017-09-02T09:36:40.602Z,1014.59
2017-09-02T09:37:41.056Z,1014.62
2017-09-02T09:38:41.511Z,1014.58
2017-09-02T09:39:41.976Z,1014.60
2017-09-02T09:40:42.436Z,1014.57
2017-09-02T09:41:42.892Z,1014.56
2017-09-02T09:42:43.377Z,1014.51
2017-09-02T09:43:43.855Z,1014.47
2017-09-02T09:44:44.285Z,1014.48
2017-09-02T09:45:44.753Z,1014.44
2017-09-02T09:46:45.207Z,1014.46
2017-09-02T09:47:45.670Z,1014.43
2017-09-02T09:48:46.141Z,1014.35
2017-09-02T09:49:46.599Z,1014.36
2017-09-02T09:50:47.061Z,1014.38
2017-09-02T09:51:47.538Z,1014.30
2017-09-02T09:52:48.002Z,1014.32
2017-09-02T09:53:48.465Z,1014.31
2017-09-02T09:54:48.919Z,1014.33
2017-09-02T09:55:49.411Z,1014.31
2017-09-02T09:56:49.857Z,1014.30
2017-09-02T09:57:50.333Z,1014.32
2017-09-02T09:58:50.792Z,1014.32
2017-09-02T09:59:51.263Z,1014.33
2017-09-02T10:00:51.723Z,1014.32
2017-09-02T10:01:52.191Z,1014.26
2017-09-02T10:02:52.659Z,1014.29
2017-09-02T10:03:53.123Z,1014.27
2017-09-02T10:04:53.593Z,1014.26
2017-09-02T10:05:54.057Z,1014.28
2017-09-02T10:06:54.524Z,1014.30
2017-09-02T10:07:54.993Z,1014.31
2017-09-02T10:08:55.466Z,1014.29
2017-09-02T10:09:55.929Z,1014.30
2017-09-02T10:10:56.401Z,1014.32
2017-09-02T10:11:56.892Z,1014.29
2017-09-02T10:12:57.332Z,1014.35
2017-09-02T10:13:57.797Z,1014.31
2017-09-02T10:14:58.266Z,1014.29
2017-09-02T10:15:58.737Z,1014.28
2017-09-02T10:16:59.239Z,1014.32
2017-09-02T10:17:59.690Z,1014.38
2017-09-02T10:19:00.149Z,1014.37
2017-09-02T10:20:00.647Z,1014.32
2017-09-02T10:21:01.081Z,1014.32
2017-09-02T10:22:01.537Z,1014.37
2017-09-02T10:23:02.005Z,1014.32
2017-09-02T10:24:02.469Z,1014.37
2017-09-02T10:25:02.932Z,1014.35
2017-09-02T10:26:03.405Z,1014.41
2017-09-02T10:27:03.861Z,1014.36
2017-09-02T10:28:04.328Z,1014.32
2017-09-02T10:29:04.790Z,1014.33
2017-09-02T10:30:05.247Z,1014.30
2017-09-02T10:31:05.722Z,1014.32
2017-09-02T10:32:06.174Z,1014.25
2017-09-02T10:33:06.629Z,1014.25
2017-09-02T10:34:07.092Z,1014.22
2017-09-02T10:35:07.562Z,1014.16
2017-09-02T10:36:08.017Z,1014.17
2017-09-02T10:37:08.479Z,1014.17
2017-09-02T10:38:08.941Z,1014.21
2017-09-02T10:39:09.411Z,1014.18
2017-09-02T10:40:09.865Z,1014.23
2017-09-02T10:41:10.332Z,1014.27
2017-09-02T10:42:10.799Z,1014.33
2017-09-02T10:43:11.254Z,1014.32
2017-09-02T10:44:11.719Z,1014.27
2017-09-02T10:45:12.172Z,1014.25
2017-09-02T10:47:45.780Z,1014.21
2017-09-02T10:50:20.374Z,1014.18
2017-09-02T10:51:20.830Z,1014.16
2017-09-02T10:53:16.417Z,1014.16
2017-09-02T10:54:16.875Z,1014.13
2017-09-02T10:56:11.500Z,1014.17
2017-09-02T10:57:11.960Z,1014.19
2017-09-02T10:58:12.427Z,1014.16
2017-09-02T10:59:12.895Z,1014.11
2017-09-02T11:00:13.358Z,1014.21
2017-09-02T11:01:13.818Z,1014.18
2017-09-02T11:02:14.276Z,1014.26
2017-09-02T11:03:14.747Z,1014.24
2017-09-02T11:04:15.205Z,1014.28
2017-09-02T11:05:15.659Z,1014.28
2017-09-02T11:06:16.119Z,1014.33
2017-09-02T11:07:16.579Z,1014.34
2017-09-02T11:08:17.044Z,1014.39
2017-09-02T11:09:17.497Z,1014.37
2017-09-02T11:10:17.954Z,1014.32
2017-09-02T11:11:18.405Z,1014.36
2017-09-02T11:12:18.884Z,1014.34
2017-09-02T11:13:19.320Z,1014.37
2017-09-02T11:14:19.773Z,1014.37
2017-09-02T11:15:20.223Z,1014.35
2017-09-02T11:16:20.674Z,1014.34
2017-09-02T11:17:21.129Z,1014.30
2017-09-02T11:18:21.588Z,1014.31
2017-09-02T11:19:22.028Z,1014.30
2017-09-02T11:20:22.478Z,1014.26
2017-09-02T11:21:22.936Z,1014.29
2017-09-02T11:22:23.396Z,1014.32
2017-09-02T11:23:23.833Z,1014.31
2017-09-02T11:24:24.276Z,1014.28
2017-09-02T11:25:24.738Z,1014.32
2017-09-02T11:26:25.173Z,1014.28
2017-09-02T11:27:25.626Z,1014.34
2017-09-02T11:28:26.062Z,1014.32
2017-09-02T11:29:26.512Z,1014.31
2017-09-02T11:30:26.962Z,1014.29
2017-09-02T11:31:27.408Z,1014.27
2017-09-02T11:32:27.859Z,1014.30
2017-09-02T11:33:28.303Z,1014.29
2017-09-02T11:34:28.754Z,1014.29
2017-09-02T11:35:29.199Z,1014.25
2017-09-02T11:36:29.646Z,1014.20
2017-09-02T11:37:30.095Z,1014.22
2017-09-02T11:38:30.541Z,1014.23
2017-09-02T11:39:31.000Z,1014.28
2017-09-02T11:40:52.604Z,1014.21
2017-09-02T11:43:06.039Z,1014.23
2017-09-02T11:44:06.458Z,1014.24
2017-09-02T11:46:01.032Z,1014.24
2017-09-02T11:47:01.486Z,1014.24
2017-09-02T11:48:56.077Z,1014.25
2017-09-02T11:49:56.519Z,1014.28
2017-09-02T11:51:51.108Z,1014.28
2017-09-02T11:52:51.559Z,1014.24
2017-09-02T11:54:47.130Z,1014.27
2017-09-02T11:55:47.585Z,1014.21
2017-09-02T11:57:42.174Z,1014.21
2017-09-02T11:58:42.638Z,1014.21
2017-09-02T12:00:37.234Z,1014.19
2017-09-02T12:01:37.662Z,1014.17
2017-09-02T12:03:32.251Z,1014.13
2017-09-02T12:04:32.701Z,1014.12
2017-09-02T12:06:27.281Z,1014.12
2017-09-02T12:07:27.728Z,1014.09
2017-09-02T12:09:23.300Z,1014.07
2017-09-02T12:10:23.742Z,1014.03
2017-09-02T12:11:24.194Z,1014.08
2017-09-02T12:12:24.640Z,1014.01
2017-09-02T12:13:25.088Z,1014.07
2017-09-02T12:14:25.529Z,1014.07
2017-09-02T12:15:25.985Z,1014.09
2017-09-02T12:16:26.431Z,1014.08
2017-09-02T12:17:26.874Z,1014.07
2017-09-02T12:18:27.315Z,1014.06
2017-09-02T12:19:27.764Z,1014.08
2017-09-02T12:20:28.209Z,1014.07
2017-09-02T12:21:28.656Z,1014.11
2017-09-02T12:22:29.104Z,1014.08
2017-09-02T12:23:29.548Z,1014.10
2017-09-02T12:24:29.995Z,1014.13
2017-09-02T12:25:30.448Z,1014.12
2017-09-02T12:26:30.888Z,1014.10
2017-09-02T12:27:31.337Z,1014.11
2017-09-02T12:28:31.782Z,1014.09
2017-09-02T12:29:32.231Z,1014.11